sensor_id;sensor_type;location;lat;lon;timestamp;P1;durP1;ratioP1;P2;durP2;ratioP2
77738;SDS011;66904;59.926;30.404;2023-05-07T00:02:01;0.70;;;0.50;;
77738;SDS011;66904;59.926;30.404;2023-05-07T00:07:04;0.35;;;0.20;;
77738;SDS011;66904;59.926;30.404;2023-05-07T00:12:05;0.40;;;0.32;;
77738;SDS011;66904;59.926;30.404;2023-05-07T00:17:05;0.43;;;0.20;;
77738;SDS011;66904;59.926;30.404;2023-05-07T00:22:06;0.08;;;0.00;;
77738;SDS011;66904;59.926;30.404;2023-05-07T00:27:08;0.60;;;0.30;;
77738;SDS011;66904;59.926;30.404;2023-05-07T00:32:08;0.40;;;0.20;;
77738;SDS011;66904;59.926;30.404;2023-05-07T00:37:09;0.40;;;0.20;;
77738;SDS011;66904;59.926;30.404;2023-05-07T00:42:09;0.80;;;0.22;;
77738;SDS011;66904;59.926;30.404;2023-05-07T00:47:10;0.43;;;0.28;;
77738;SDS011;66904;59.926;30.404;2023-05-07T00:52:13;0.30;;;0.20;;
77738;SDS011;66904;59.926;30.404;2023-05-07T00:57:16;0.20;;;0.10;;
77738;SDS011;66904;59.926;30.404;2023-05-07T01:02:20;1.58;;;0.30;;
77738;SDS011;66904;59.926;30.404;2023-05-07T01:07:21;0.00;;;0.00;;
77738;SDS011;66904;59.926;30.404;2023-05-07T01:12:23;0.15;;;0.10;;
77738;SDS011;66904;59.926;30.404;2023-05-07T01:17:25;0.32;;;0.20;;
77738;SDS011;66904;59.926;30.404;2023-05-07T01:22:28;0.30;;;0.17;;
77738;SDS011;66904;59.926;30.404;2023-05-07T01:27:32;0.57;;;0.25;;
77738;SDS011;66904;59.926;30.404;2023-05-07T01:32:35;0.10;;;0.00;;
77738;SDS011;66904;59.926;30.404;2023-05-07T01:37:40;0.40;;;0.30;;
77738;SDS011;66904;59.926;30.404;2023-05-07T01:42:42;0.28;;;0.17;;
77738;SDS011;66904;59.926;30.404;2023-05-07T01:47:43;0.10;;;0.10;;
77738;SDS011;66904;59.926;30.404;2023-05-07T01:52:44;0.38;;;0.38;;
77738;SDS011;66904;59.926;30.404;2023-05-07T01:57:45;0.55;;;0.20;;
77738;SDS011;66904;59.926;30.404;2023-05-07T02:02:45;0.57;;;0.22;;
77738;SDS011;66904;59.926;30.404;2023-05-07T02:07:46;0.40;;;0.22;;
77738;SDS011;66904;59.926;30.404;2023-05-07T02:12:46;0.22;;;0.20;;
77738;SDS011;66904;59.926;30.404;2023-05-07T02:18:01;0.20;;;0.17;;
77738;SDS011;66904;59.926;30.404;2023-05-07T02:23:02;0.32;;;0.17;;
77738;SDS011;66904;59.926;30.404;2023-05-07T02:28:03;0.73;;;0.55;;
77738;SDS011;66904;59.926;30.404;2023-05-07T02:33:04;0.40;;;0.10;;
77738;SDS011;66904;59.926;30.404;2023-05-07T02:38:04;0.40;;;0.25;;
77738;SDS011;66904;59.926;30.404;2023-05-07T02:43:05;0.40;;;0.20;;
77738;SDS011;66904;59.926;30.404;2023-05-07T02:48:06;1.27;;;0.50;;
77738;SDS011;66904;59.926;30.404;2023-05-07T02:53:06;0.75;;;0.30;;
77738;SDS011;66904;59.926;30.404;2023-05-07T02:58:07;0.52;;;0.20;;
77738;SDS011;66904;59.926;30.404;2023-05-07T03:03:08;0.43;;;0.20;;
77738;SDS011;66904;59.926;30.404;2023-05-07T03:08:08;0.82;;;0.32;;
77738;SDS011;66904;59.926;30.404;2023-05-07T03:13:10;0.40;;;0.15;;
77738;SDS011;66904;59.926;30.404;2023-05-07T03:18:10;0.30;;;0.10;;
77738;SDS011;66904;59.926;30.404;2023-05-07T03:23:11;0.50;;;0.13;;
77738;SDS011;66904;59.926;30.404;2023-05-07T03:28:11;0.57;;;0.20;;
77738;SDS011;66904;59.926;30.404;2023-05-07T03:33:12;0.38;;;0.10;;
77738;SDS011;66904;59.926;30.404;2023-05-07T03:38:12;0.38;;;0.10;;
77738;SDS011;66904;59.926;30.404;2023-05-07T03:43:12;0.85;;;0.40;;
77738;SDS011;66904;59.926;30.404;2023-05-07T03:48:13;0.50;;;0.30;;
77738;SDS011;66904;59.926;30.404;2023-05-07T03:53:13;0.45;;;0.20;;
77738;SDS011;66904;59.926;30.404;2023-05-07T03:58:14;0.63;;;0.35;;
77738;SDS011;66904;59.926;30.404;2023-05-07T04:03:15;0.38;;;0.20;;
77738;SDS011;66904;59.926;30.404;2023-05-07T04:08:17;2.35;;;0.38;;
77738;SDS011;66904;59.926;30.404;2023-05-07T04:13:17;0.50;;;0.30;;
77738;SDS011;66904;59.926;30.404;2023-05-07T04:18:18;0.55;;;0.28;;
77738;SDS011;66904;59.926;30.404;2023-05-07T04:23:18;0.30;;;0.10;;
77738;SDS011;66904;59.926;30.404;2023-05-07T04:28:19;0.50;;;0.25;;
77738;SDS011;66904;59.926;30.404;2023-05-07T04:33:20;0.93;;;0.43;;
77738;SDS011;66904;59.926;30.404;2023-05-07T04:38:21;0.40;;;0.17;;
77738;SDS011;66904;59.926;30.404;2023-05-07T04:43:23;0.40;;;0.20;;
77738;SDS011;66904;59.926;30.404;2023-05-07T04:48:24;0.32;;;0.20;;
77738;SDS011;66904;59.926;30.404;2023-05-07T04:53:26;0.20;;;0.13;;
77738;SDS011;66904;59.926;30.404;2023-05-07T04:58:26;0.30;;;0.13;;
77738;SDS011;66904;59.926;30.404;2023-05-07T05:03:27;0.35;;;0.10;;
77738;SDS011;66904;59.926;30.404;2023-05-07T05:08:29;0.40;;;0.10;;
77738;SDS011;66904;59.926;30.404;2023-05-07T05:13:30;0.73;;;0.30;;
77738;SDS011;66904;59.926;30.404;2023-05-07T05:18:30;0.10;;;0.10;;
77738;SDS011;66904;59.926;30.404;2023-05-07T05:23:31;0.43;;;0.15;;
77738;SDS011;66904;59.926;30.404;2023-05-07T05:28:31;0.32;;;0.30;;
77738;SDS011;66904;59.926;30.404;2023-05-07T05:33:32;1.00;;;0.27;;
77738;SDS011;66904;59.926;30.404;2023-05-07T05:38:32;0.57;;;0.20;;
77738;SDS011;66904;59.926;30.404;2023-05-07T05:43:33;1.80;;;0.43;;
77738;SDS011;66904;59.926;30.404;2023-05-07T05:48:33;0.68;;;0.30;;
77738;SDS011;66904;59.926;30.404;2023-05-07T05:53:34;0.45;;;0.20;;
77738;SDS011;66904;59.926;30.404;2023-05-07T05:58:35;2.63;;;0.20;;
77738;SDS011;66904;59.926;30.404;2023-05-07T06:03:35;0.65;;;0.13;;
77738;SDS011;66904;59.926;30.404;2023-05-07T06:08:36;0.50;;;0.20;;
77738;SDS011;66904;59.926;30.404;2023-05-07T06:13:36;0.50;;;0.20;;
77738;SDS011;66904;59.926;30.404;2023-05-07T06:18:37;0.10;;;0.10;;
77738;SDS011;66904;59.926;30.404;2023-05-07T06:23:38;0.77;;;0.28;;
77738;SDS011;66904;59.926;30.404;2023-05-07T06:28:40;0.40;;;0.28;;
77738;SDS011;66904;59.926;30.404;2023-05-07T06:33:41;1.02;;;0.30;;
77738;SDS011;66904;59.926;30.404;2023-05-07T06:38:42;1.85;;;0.10;;
77738;SDS011;66904;59.926;30.404;2023-05-07T06:43:42;0.47;;;0.20;;
77738;SDS011;66904;59.926;30.404;2023-05-07T06:48:42;0.65;;;0.20;;
77738;SDS011;66904;59.926;30.404;2023-05-07T06:53:43;0.20;;;0.10;;
77738;SDS011;66904;59.926;30.404;2023-05-07T06:58:43;0.68;;;0.10;;
77738;SDS011;66904;59.926;30.404;2023-05-07T07:03:44;1.45;;;0.20;;
77738;SDS011;66904;59.926;30.404;2023-05-07T07:08:45;0.13;;;0.10;;
77738;SDS011;66904;59.926;30.404;2023-05-07T07:13:45;0.82;;;0.20;;
77738;SDS011;66904;59.926;30.404;2023-05-07T07:18:46;0.40;;;0.30;;
77738;SDS011;66904;59.926;30.404;2023-05-07T07:23:46;0.63;;;0.28;;
77738;SDS011;66904;59.926;30.404;2023-05-07T07:28:47;0.70;;;0.30;;
77738;SDS011;66904;59.926;30.404;2023-05-07T07:33:48;0.00;;;0.00;;
77738;SDS011;66904;59.926;30.404;2023-05-07T07:38:50;0.60;;;0.20;;
77738;SDS011;66904;59.926;30.404;2023-05-07T07:43:50;0.10;;;0.00;;
77738;SDS011;66904;59.926;30.404;2023-05-07T07:48:51;0.35;;;0.10;;
77738;SDS011;66904;59.926;30.404;2023-05-07T07:53:51;0.40;;;0.10;;
77738;SDS011;66904;59.926;30.404;2023-05-07T07:58:52;0.17;;;0.15;;
77738;SDS011;66904;59.926;30.404;2023-05-07T08:03:52;0.67;;;0.10;;
77738;SDS011;66904;59.926;30.404;2023-05-07T08:08:53;0.52;;;0.30;;
77738;SDS011;66904;59.926;30.404;2023-05-07T08:13:54;0.20;;;0.10;;
77738;SDS011;66904;59.926;30.404;2023-05-07T08:18:54;0.08;;;0.05;;
77738;SDS011;66904;59.926;30.404;2023-05-07T08:23:55;0.98;;;0.40;;
77738;SDS011;66904;59.926;30.404;2023-05-07T08:28:55;3.78;;;0.30;;
77738;SDS011;66904;59.926;30.404;2023-05-07T08:33:57;2.42;;;1.27;;
77738;SDS011;66904;59.926;30.404;2023-05-07T08:38:58;69.93;;;46.10;;
77738;SDS011;66904;59.926;30.404;2023-05-07T08:43:59;36.42;;;21.30;;
77738;SDS011;66904;59.926;30.404;2023-05-07T08:49:04;23.40;;;13.68;;
77738;SDS011;66904;59.926;30.404;2023-05-07T08:54:04;16.20;;;9.30;;
77738;SDS011;66904;59.926;30.404;2023-05-07T08:59:06;13.77;;;7.50;;
77738;SDS011;66904;59.926;30.404;2023-05-07T09:04:06;9.33;;;5.60;;
77738;SDS011;66904;59.926;30.404;2023-05-07T09:09:07;7.20;;;4.03;;
77738;SDS011;66904;59.926;30.404;2023-05-07T09:14:07;9.23;;;4.43;;
77738;SDS011;66904;59.926;30.404;2023-05-07T09:19:08;6.40;;;3.55;;
77738;SDS011;66904;59.926;30.404;2023-05-07T09:24:08;6.72;;;2.80;;
77738;SDS011;66904;59.926;30.404;2023-05-07T09:29:09;4.43;;;2.50;;
77738;SDS011;66904;59.926;30.404;2023-05-07T09:34:10;4.10;;;2.20;;
77738;SDS011;66904;59.926;30.404;2023-05-07T09:39:11;3.30;;;2.05;;
77738;SDS011;66904;59.926;30.404;2023-05-07T09:44:13;4.40;;;1.63;;
77738;SDS011;66904;59.926;30.404;2023-05-07T09:49:22;2.63;;;1.35;;
77738;SDS011;66904;59.926;30.404;2023-05-07T09:54:24;2.85;;;1.40;;
77738;SDS011;66904;59.926;30.404;2023-05-07T09:59:25;2.45;;;1.20;;
77738;SDS011;66904;59.926;30.404;2023-05-07T10:04:27;3.00;;;1.92;;
77738;SDS011;66904;59.926;30.404;2023-05-07T10:09:28;4.05;;;3.22;;
77738;SDS011;66904;59.926;30.404;2023-05-07T10:14:30;4.18;;;3.50;;
77738;SDS011;66904;59.926;30.404;2023-05-07T10:19:30;5.15;;;4.13;;
77738;SDS011;66904;59.926;30.404;2023-05-07T10:24:33;5.15;;;4.20;;
77738;SDS011;66904;59.926;30.404;2023-05-07T10:29:50;5.78;;;4.18;;
77738;SDS011;66904;59.926;30.404;2023-05-07T10:35:04;3.63;;;3.20;;
77738;SDS011;66904;59.926;30.404;2023-05-07T10:45:14;4.65;;;3.13;;
77738;SDS011;66904;59.926;30.404;2023-05-07T11:05:26;3.63;;;2.38;;
77738;SDS011;66904;59.926;30.404;2023-05-07T11:15:52;3.33;;;2.05;;
77738;SDS011;66904;59.926;30.404;2023-05-07T11:20:56;5.25;;;2.05;;
77738;SDS011;66904;59.926;30.404;2023-05-07T11:26:08;4.55;;;2.60;;
77738;SDS011;66904;59.926;30.404;2023-05-07T11:31:10;3.50;;;1.95;;
77738;SDS011;66904;59.926;30.404;2023-05-07T11:36:11;2.35;;;1.40;;
77738;SDS011;66904;59.926;30.404;2023-05-07T11:41:12;2.85;;;1.48;;
77738;SDS011;66904;59.926;30.404;2023-05-07T11:46:13;1.88;;;0.80;;
77738;SDS011;66904;59.926;30.404;2023-05-07T11:51:14;1.77;;;0.90;;
77738;SDS011;66904;59.926;30.404;2023-05-07T11:56:19;1.13;;;0.35;;
77738;SDS011;66904;59.926;30.404;2023-05-07T12:01:20;1.10;;;0.50;;
77738;SDS011;66904;59.926;30.404;2023-05-07T12:06:20;1.73;;;0.43;;
77738;SDS011;66904;59.926;30.404;2023-05-07T12:11:24;1.60;;;0.40;;
77738;SDS011;66904;59.926;30.404;2023-05-07T12:16:26;0.77;;;0.32;;
77738;SDS011;66904;59.926;30.404;2023-05-07T12:21:27;1.55;;;0.30;;
77738;SDS011;66904;59.926;30.404;2023-05-07T12:26:29;1.40;;;0.65;;
77738;SDS011;66904;59.926;30.404;2023-05-07T12:31:30;1.35;;;0.30;;
77738;SDS011;66904;59.926;30.404;2023-05-07T12:36:37;0.00;;;0.00;;
77738;SDS011;66904;59.926;30.404;2023-05-07T12:41:55;1.17;;;0.40;;
77738;SDS011;66904;59.926;30.404;2023-05-07T12:46:56;0.73;;;0.25;;
77738;SDS011;66904;59.926;30.404;2023-05-07T12:51:56;1.10;;;0.47;;
77738;SDS011;66904;59.926;30.404;2023-05-07T12:57:05;0.73;;;0.10;;
77738;SDS011;66904;59.926;30.404;2023-05-07T13:02:07;0.20;;;0.10;;
77738;SDS011;66904;59.926;30.404;2023-05-07T13:07:08;0.38;;;0.25;;
77738;SDS011;66904;59.926;30.404;2023-05-07T13:12:09;0.85;;;0.30;;
77738;SDS011;66904;59.926;30.404;2023-05-07T13:17:09;0.70;;;0.40;;
77738;SDS011;66904;59.926;30.404;2023-05-07T13:22:10;0.30;;;0.20;;
77738;SDS011;66904;59.926;30.404;2023-05-07T13:27:10;0.60;;;0.40;;
77738;SDS011;66904;59.926;30.404;2023-05-07T13:32:11;0.47;;;0.20;;
77738;SDS011;66904;59.926;30.404;2023-05-07T13:37:12;0.52;;;0.22;;
77738;SDS011;66904;59.926;30.404;2023-05-07T13:42:12;0.55;;;0.20;;
77738;SDS011;66904;59.926;30.404;2023-05-07T13:47:13;0.80;;;0.20;;
77738;SDS011;66904;59.926;30.404;2023-05-07T13:52:13;1.00;;;0.22;;
77738;SDS011;66904;59.926;30.404;2023-05-07T13:57:14;0.13;;;0.13;;
77738;SDS011;66904;59.926;30.404;2023-05-07T14:02:14;1.73;;;0.50;;
77738;SDS011;66904;59.926;30.404;2023-05-07T14:07:15;1.50;;;0.43;;
77738;SDS011;66904;59.926;30.404;2023-05-07T14:12:15;1.55;;;0.20;;
77738;SDS011;66904;59.926;30.404;2023-05-07T14:17:16;0.85;;;0.17;;
77738;SDS011;66904;59.926;30.404;2023-05-07T14:22:17;197.75;;;93.50;;
77738;SDS011;66904;59.926;30.404;2023-05-07T14:27:18;786.60;;;498.65;;
77738;SDS011;66904;59.926;30.404;2023-05-07T14:32:18;422.77;;;244.27;;
77738;SDS011;66904;59.926;30.404;2023-05-07T14:37:19;280.75;;;146.25;;
77738;SDS011;66904;59.926;30.404;2023-05-07T14:42:20;213.02;;;115.20;;
77738;SDS011;66904;59.926;30.404;2023-05-07T14:47:23;156.85;;;90.32;;
77738;SDS011;66904;59.926;30.404;2023-05-07T14:52:23;137.60;;;79.45;;
77738;SDS011;66904;59.926;30.404;2023-05-07T14:57:24;109.15;;;60.90;;
77738;SDS011;66904;59.926;30.404;2023-05-07T15:02:25;85.30;;;49.60;;
77738;SDS011;66904;59.926;30.404;2023-05-07T15:07:25;63.88;;;36.17;;
77738;SDS011;66904;59.926;30.404;2023-05-07T15:12:27;50.90;;;28.55;;
77738;SDS011;66904;59.926;30.404;2023-05-07T15:17:27;49.50;;;25.45;;
77738;SDS011;66904;59.926;30.404;2023-05-07T15:22:28;35.75;;;21.70;;
77738;SDS011;66904;59.926;30.404;2023-05-07T15:27:28;31.90;;;18.80;;
77738;SDS011;66904;59.926;30.404;2023-05-07T15:32:29;28.10;;;15.43;;
77738;SDS011;66904;59.926;30.404;2023-05-07T15:37:32;27.27;;;16.95;;
77738;SDS011;66904;59.926;30.404;2023-05-07T15:42:33;20.73;;;11.35;;
77738;SDS011;66904;59.926;30.404;2023-05-07T15:47:34;19.60;;;10.80;;
77738;SDS011;66904;59.926;30.404;2023-05-07T15:52:35;16.00;;;7.82;;
77738;SDS011;66904;59.926;30.404;2023-05-07T15:57:35;12.45;;;7.35;;
77738;SDS011;66904;59.926;30.404;2023-05-07T16:02:36;10.90;;;6.15;;
77738;SDS011;66904;59.926;30.404;2023-05-07T16:07:37;9.93;;;6.15;;
77738;SDS011;66904;59.926;30.404;2023-05-07T16:12:38;11.60;;;5.13;;
77738;SDS011;66904;59.926;30.404;2023-05-07T16:17:40;7.80;;;4.47;;
77738;SDS011;66904;59.926;30.404;2023-05-07T16:22:40;6.35;;;3.55;;
77738;SDS011;66904;59.926;30.404;2023-05-07T16:27:41;5.88;;;3.20;;
77738;SDS011;66904;59.926;30.404;2023-05-07T16:32:42;5.97;;;2.65;;
77738;SDS011;66904;59.926;30.404;2023-05-07T16:37:42;4.45;;;2.25;;
77738;SDS011;66904;59.926;30.404;2023-05-07T16:42:43;4.75;;;2.53;;
77738;SDS011;66904;59.926;30.404;2023-05-07T16:47:43;4.03;;;2.17;;
77738;SDS011;66904;59.926;30.404;2023-05-07T16:52:44;3.65;;;1.98;;
77738;SDS011;66904;59.926;30.404;2023-05-07T16:57:45;3.17;;;1.93;;
77738;SDS011;66904;59.926;30.404;2023-05-07T17:02:45;3.22;;;1.45;;
77738;SDS011;66904;59.926;30.404;2023-05-07T17:07:46;2.40;;;0.93;;
77738;SDS011;66904;59.926;30.404;2023-05-07T17:12:46;3.47;;;1.20;;
77738;SDS011;66904;59.926;30.404;2023-05-07T17:17:47;2.13;;;1.00;;
77738;SDS011;66904;59.926;30.404;2023-05-07T17:22:47;2.65;;;1.65;;
77738;SDS011;66904;59.926;30.404;2023-05-07T17:27:48;1.50;;;0.82;;
77738;SDS011;66904;59.926;30.404;2023-05-07T17:32:48;1.40;;;0.60;;
77738;SDS011;66904;59.926;30.404;2023-05-07T17:37:49;1.13;;;0.45;;
77738;SDS011;66904;59.926;30.404;2023-05-07T17:42:51;2.17;;;0.50;;
77738;SDS011;66904;59.926;30.404;2023-05-07T17:47:52;1.52;;;0.32;;
77738;SDS011;66904;59.926;30.404;2023-05-07T17:52:52;0.75;;;0.43;;
77738;SDS011;66904;59.926;30.404;2023-05-07T17:57:53;0.98;;;0.45;;
77738;SDS011;66904;59.926;30.404;2023-05-07T18:02:53;1.02;;;0.55;;
77738;SDS011;66904;59.926;30.404;2023-05-07T18:07:54;4.38;;;0.73;;
77738;SDS011;66904;59.926;30.404;2023-05-07T18:12:55;0.90;;;0.40;;
77738;SDS011;66904;59.926;30.404;2023-05-07T18:17:56;1.10;;;0.52;;
77738;SDS011;66904;59.926;30.404;2023-05-07T18:22:56;0.47;;;0.30;;
77738;SDS011;66904;59.926;30.404;2023-05-07T18:27:57;0.95;;;0.57;;
77738;SDS011;66904;59.926;30.404;2023-05-07T18:32:57;2.05;;;0.60;;
77738;SDS011;66904;59.926;30.404;2023-05-07T18:37:58;3.20;;;0.67;;
77738;SDS011;66904;59.926;30.404;2023-05-07T18:42:58;0.90;;;0.43;;
77738;SDS011;66904;59.926;30.404;2023-05-07T18:53:06;0.63;;;0.32;;
77738;SDS011;66904;59.926;30.404;2023-05-07T18:58:06;0.80;;;0.50;;
77738;SDS011;66904;59.926;30.404;2023-05-07T19:03:07;2.45;;;0.30;;
77738;SDS011;66904;59.926;30.404;2023-05-07T19:08:07;0.65;;;0.20;;
77738;SDS011;66904;59.926;30.404;2023-05-07T19:13:08;0.95;;;0.50;;
77738;SDS011;66904;59.926;30.404;2023-05-07T19:18:09;0.43;;;0.22;;
77738;SDS011;66904;59.926;30.404;2023-05-07T19:23:10;0.30;;;0.10;;
77738;SDS011;66904;59.926;30.404;2023-05-07T19:28:11;0.55;;;0.50;;
77738;SDS011;66904;59.926;30.404;2023-05-07T19:33:11;1.20;;;0.40;;
77738;SDS011;66904;59.926;30.404;2023-05-07T19:38:12;1.20;;;0.77;;
77738;SDS011;66904;59.926;30.404;2023-05-07T19:43:12;0.70;;;0.20;;
77738;SDS011;66904;59.926;30.404;2023-05-07T19:48:13;0.80;;;0.40;;
77738;SDS011;66904;59.926;30.404;2023-05-07T19:53:14;0.80;;;0.30;;
77738;SDS011;66904;59.926;30.404;2023-05-07T19:58:14;2.35;;;0.38;;
77738;SDS011;66904;59.926;30.404;2023-05-07T20:03:15;1.10;;;0.22;;
77738;SDS011;66904;59.926;30.404;2023-05-07T20:08:17;0.73;;;0.38;;
77738;SDS011;66904;59.926;30.404;2023-05-07T20:13:18;0.80;;;0.35;;
77738;SDS011;66904;59.926;30.404;2023-05-07T20:18:18;0.63;;;0.30;;
77738;SDS011;66904;59.926;30.404;2023-05-07T20:23:19;0.57;;;0.35;;
77738;SDS011;66904;59.926;30.404;2023-05-07T20:28:20;1.35;;;0.70;;
77738;SDS011;66904;59.926;30.404;2023-05-07T20:33:20;0.40;;;0.20;;
77738;SDS011;66904;59.926;30.404;2023-05-07T20:38:21;0.90;;;0.32;;
77738;SDS011;66904;59.926;30.404;2023-05-07T20:43:21;0.80;;;0.80;;
77738;SDS011;66904;59.926;30.404;2023-05-07T20:48:22;0.30;;;0.30;;
77738;SDS011;66904;59.926;30.404;2023-05-07T20:53:22;2.42;;;0.40;;
77738;SDS011;66904;59.926;30.404;2023-05-07T20:58:24;0.70;;;0.30;;
77738;SDS011;66904;59.926;30.404;2023-05-07T21:03:26;0.80;;;0.40;;
77738;SDS011;66904;59.926;30.404;2023-05-07T21:08:27;0.47;;;0.20;;
77738;SDS011;66904;59.926;30.404;2023-05-07T21:13:27;0.45;;;0.28;;
77738;SDS011;66904;59.926;30.404;2023-05-07T21:18:28;0.43;;;0.20;;
77738;SDS011;66904;59.926;30.404;2023-05-07T21:23:29;0.35;;;0.30;;
77738;SDS011;66904;59.926;30.404;2023-05-07T21:28:30;0.45;;;0.25;;
77738;SDS011;66904;59.926;30.404;2023-05-07T21:33:30;0.35;;;0.17;;
77738;SDS011;66904;59.926;30.404;2023-05-07T21:38:31;0.70;;;0.32;;
77738;SDS011;66904;59.926;30.404;2023-05-07T21:43:32;0.47;;;0.17;;
77738;SDS011;66904;59.926;30.404;2023-05-07T21:48:32;0.88;;;0.13;;
77738;SDS011;66904;59.926;30.404;2023-05-07T21:53:33;1.08;;;0.20;;
77738;SDS011;66904;59.926;30.404;2023-05-07T21:58:35;1.20;;;0.40;;
77738;SDS011;66904;59.926;30.404;2023-05-07T22:03:35;0.60;;;0.25;;
77738;SDS011;66904;59.926;30.404;2023-05-07T22:08:36;1.47;;;0.50;;
77738;SDS011;66904;59.926;30.404;2023-05-07T22:13:36;1.45;;;0.40;;
77738;SDS011;66904;59.926;30.404;2023-05-07T22:18:37;1.55;;;0.20;;
77738;SDS011;66904;59.926;30.404;2023-05-07T22:23:37;0.40;;;0.28;;
77738;SDS011;66904;59.926;30.404;2023-05-07T22:28:38;1.75;;;0.32;;
77738;SDS011;66904;59.926;30.404;2023-05-07T22:33:39;0.32;;;0.20;;
77738;SDS011;66904;59.926;30.404;2023-05-07T22:38:40;1.10;;;0.47;;
77738;SDS011;66904;59.926;30.404;2023-05-07T22:43:40;0.85;;;0.52;;
77738;SDS011;66904;59.926;30.404;2023-05-07T22:48:41;0.98;;;0.60;;
77738;SDS011;66904;59.926;30.404;2023-05-07T22:53:41;0.50;;;0.30;;
77738;SDS011;66904;59.926;30.404;2023-05-07T22:58:42;0.57;;;0.47;;
77738;SDS011;66904;59.926;30.404;2023-05-07T23:03:42;0.57;;;0.35;;
77738;SDS011;66904;59.926;30.404;2023-05-07T23:08:43;0.70;;;0.38;;
77738;SDS011;66904;59.926;30.404;2023-05-07T23:13:43;0.70;;;0.50;;
77738;SDS011;66904;59.926;30.404;2023-05-07T23:18:44;0.35;;;0.20;;
77738;SDS011;66904;59.926;30.404;2023-05-07T23:23:44;0.50;;;0.40;;
77738;SDS011;66904;59.926;30.404;2023-05-07T23:28:46;0.55;;;0.20;;
77738;SDS011;66904;59.926;30.404;2023-05-07T23:33:47;0.47;;;0.20;;
77738;SDS011;66904;59.926;30.404;2023-05-07T23:38:47;2.38;;;0.50;;
77738;SDS011;66904;59.926;30.404;2023-05-07T23:43:48;0.85;;;0.30;;
77738;SDS011;66904;59.926;30.404;2023-05-07T23:48:48;0.65;;;0.25;;
77738;SDS011;66904;59.926;30.404;2023-05-07T23:53:49;0.30;;;0.10;;
77738;SDS011;66904;59.926;30.404;2023-05-07T23:58:50;0.47;;;0.20;;
